Atalissa, IA

1:07 AM CST on March 05, 2015 (GMT -0600)
Center of Cedar County | Change Station
CLOSE
Current Station
Personal Weather Station
Location: Tipton, IA
Elevation: 823 ft
Nearby Weather Stations

Elev 823 ft 41.77 °N, 91.13 °W | Updated 49 seconds ago

Mostly Cloudy
Mostly Cloudy
3.2 °F
Feels Like -9 °F
N
7.0
Wind Variable Wind from North
Gusts 7.0 mph

Today
High -- | Low -- °F
--% Chance of Precip.
Yesterday
High -- | Low -- °F
Precip. -- in
6:33 AM 5:59 PM
Full, 100% visible
Pressure 30.45 in
Visibility 10.0 miles
Clouds Mostly Cloudy 4600 ft
Windchill -9 °F
Dew Point -2 °F
Humidity 77%
Rainfall in
Snow Depth Not available.
UV 0 out of 12
Pollen .20 out of 12
Air Quality Not available.
Flu Activity Not available.
METAR KMUT 050655Z AUTO 36011KT 10SM BKN046 M11/M16 A3045 RMK AO2

More Conditions Fewer Conditions

Pressure 30.45 in
Visibility 10.0 miles
Clouds Mostly Cloudy 4600 ft
Windchill -9 °F
Dew Point -2 °F
Humidity 77%
Rainfall in
Snow Depth Not available.
UV 0 out of 12
Pollen .20 out of 12
Air Quality Not available.
Flu Activity Not available.
METAR KMUT 050655Z AUTO 36011KT 10SM BKN046 M11/M16 A3045 RMK AO2

More Conditions Fewer Conditions

10-Day Weather Forecast

Almanac

Astronomy

Mar. 05, 2015 Rise Set
Actual Time
Civil Twilight
Nautical Twilight
Astronomical Twilight
Moon
Length of Visible Light
Length of Day
Tomorrow will be .
, % of the Moon is Illuminated

Today's Extremes

State Highs State Lows

Community

WunderPhotos

Upload Photos

1,802,689 photos uploaded!

WunderBlogs® & News

Nearby

Air Quality

  Air Quality AQ Index Pollutant
Not available.

Snow Depth

Station Depth Elevation

Earthquake Activity

City Distance Mag. Time & Date
Minimum magnitude displayed is 2.5.

Coastal Water Temperatures

Place Temperature

Nearby Weather Stations